Řízení letového provozu České republiky
Letiste: LKVO Aktualizace: 19.02.2018 12:03:25  UTC
 METAR LKVO 19.02. 12:00 ...
METAR LKVO 191200Z 10007KT 050V140 CAVOK 02/M05 Q1021=